Orange, New Jersey
Current Conditions -  °F | °C
As of 1:51 AM on Monday 24 Nov 2014 (Local Time) from KEWR Reporting Station
Light Rain Light Rain  
Wind Chill: 53°   Ceiling: 2300
Heat Index: 53°   Visibility: 9mi
Dew Point: 51°   Wind: 9mph
Humidity: 94%   Direction: 130°SE
Pressure: 29.88"   Gusts: NA
Location:  40.77°N, 74.23°W
Report Text: KEWR 240651Z 13008KT 9SM -RA BKN023 BKN028 OVC037 12/11 A2988 RMK AO2 SLP118 P0000 T01160106 $
Loading
Personal Weather Stations






























Interactive Weather Map New forecast layout! Learn more

10-Day Weather Forecast

Advertisements
Track Severe Weather on mobile